ROMMA est une association bénévole à but non lucratif. Votre soutien est indispensable : ADHERER à ROMMA ou FAIRE un DON

Briord - (01, Ain)

Bugey (281 m)   Longitude: 05° 29' 13" E   Latitude: 45° 46' 37" N Station partenaire n°15
 

Détail journalier du     <<     >>

Température Precipitation Humidité Pression Vent Dir Rafale Dir. rafale Ensol.
Heure (°C) (mm) (%) (hPa) (km/h) (km/h) (min)
01:00 18.4062101400---0
02:00 18.9061101405SE0
03:00 16.9067101400---0
04:00 15.3074101500---0
05:00 14.2078101402ESE0
06:00 13.8078101406SE0
07:00 13.3081101400---0
08:00 12.2084101400---0
09:00 12.2087101400---0
10:00 14.0086101505E0
11:00 19.306810151ESE5E0
12:00 21.606210152SE6SE0
13:00 23.405110141SE11ONO0
14:00 24.905110143ONO13ONO50
15:00 27.104510134O16N50
16:00 28.603910137NO21N60
17:00 29.203310136ONO21NNO60
18:00 29.703110125NO21O60
19:00 30.202610126ONO21NNO60
20:00 30.502810117NO21NNO60
21:00 29.703010115NO19NO60
22:00 28.203310114ONO15NNO0
23:00 25.204310111NNE5NNE0
minuit 22.3050101103NNE0

Graphique du 17-07-2019

 

Serveur OMMA